Gold Country Challenge - Loft Flight

Station: Loft Fly - T Race

Distance: 0.3 Miles    

Release: 11-Sep-2019 07:00

Weather Release: Cooler Morning    Arrival: Mid 80s Today

Wind at Release:     Wind at Arrival:

Temp at Release: °    Temp at Arrival: °

Lofts: 113

Birds: 433

Clocked: 433

Training Resumes tomorrow from Helipad at Loon Lake (31 Miles)
Drops Pos Breeder Pigeon Name Color Sex Ent Arrival Speed To Win Elg PdChamp
1 Nemelka Racing Pigeon Loft - UT 9081-AU19-NRPL Red Devil RC C 1 07:32:58.60 16.011 00:00:00 Yes
2 Baldwin & Tilson - NC 9001-AU19-TENT KW-362 BB H 1 08:11:07.50 7.424 00:38:09 Yes
3 Crazy Als Lofts - CO 5579-AU19-CRAZ BBSP H 1 08:11:37.20 7.372 00:38:39 Yes
4 Crazy Als Lofts - CO 5575-AU19-CRAZ BSMK H 2 08:12:08.00 7.320 00:39:09 Yes
5 Kay Eastwood - CA 0113-AU19-HANG DCSP H 1 08:12:08.90 7.318 00:39:10 Yes
6 A F L - GA 0068-IF19-AFL 58 x 44 BB C 1 08:12:10.50 7.316 00:39:12 Yes
7 J & M Partridge Loft - CA 1619-AU19-PASO BB C 1 08:12:13.90 7.310 00:39:15 Yes
8 Sierra Ranch - CA 0982-AU19-SR BB H 1 08:12:17.60 7.304 00:39:19 Yes
9 Marengo Creek Farms - AL 3416-AU19-MCF BB H 1 08:12:19.20 7.301 00:39:20 Yes
10 Al Shulman - CA 2525-AU19-WSJ PIED H 1 08:12:29.90 7.283 00:39:31 Yes
11 A P C Loft - TX 19077-AU19-APC BB H 1 08:12:34.20 7.276 00:39:35 Yes
12 Da-Dong - WI 1682-AU19-RAC 567-2332 BBWF H 1 08:12:36.30 7.272 00:39:38 Yes
13 White Arrow Loft - IL 15804-AU19-AA BB H 1 08:12:37.40 7.270 00:39:39 Yes
14 Schmueckle Loft - TX 1056-AU19-SAL BB H 1 08:12:39.40 7.267 00:39:41 Yes
15 Bernardo Ibanez - CA 72625-AU19-ARPU BC H 1 08:13:01.60 7.230 00:40:03 Yes
15 Nemelka Racing Pigeon Loft - UT 9086-AU19-NRPL Winkie BB H 2 08:13:02.00 7.230 00:40:03 Yes
17 Jack's Loft - CA 4408-AU19-JEDD BC H 1 08:13:06.50 7.222 00:40:08 Yes
18 A.D.S Hilltop Family Loft - NJ 62882-AU19-ARPU Osiris X A.D.S President BCSP H 1 08:13:18.50 7.202 00:40:20 Yes
19 Silicon Valley Syndicates - CA 19015-AU19-SVS BB H 1 08:13:19.30 7.201 00:40:21 Yes
20 Bob Bostwick - CA 0927-AU19-COCO BB H 1 08:13:49.10 7.153 00:40:50 Yes
21 Skychargers - CA 0273-AU19-CORO GRIZ H 1 08:13:59.10 7.137 00:41:00 Yes
22 Aimhigh Loft - CA 2924-AU19-AA ANCHING~CHIM*0006*** BB H 1 08:13:59.60 7.136 00:41:01 Yes
23 Cuevas Classic - TX 3924-AU19-DALL BC H 1 08:14:01.00 7.134 00:41:02 Yes
23 House Of Paine - CA 0433-AU19-HOP 1148x731 DCSP H 1 08:14:01.00 7.134 00:41:02 Yes
25 Marengo Creek Farms - AL 3227-AU19-MCF BBWF H 2 08:14:53.60 7.050 00:41:55 Yes
26 Crazy Als Lofts - CO 5519-AU19-CRAZ DC H 3 08:15:08.00 7.028 00:42:09 Yes
27 D B Loft - CA 4511-AU19-JEDD WIND JAMMER BB H 1 08:15:09.40 7.025 00:42:11 Yes
28 Genesis Syndicate Loft - AZ 0723-AU19-GENS BC H 1 08:15:13.20 7.019 00:42:15 Yes
29 Sierra Ranch - CA 0911-AU19-SR BB H 2 08:15:14.30 7.018 00:42:15 Yes
30 Frank Gonsalves - CA 0259-AU19-AA BB H 1 08:15:20.90 7.007 00:42:23 Yes
31 King Conch Loft - ON 0130-CU19-KCL BB H 1 08:15:27.60 6.997 00:42:29 Yes
32 Perfection Loft - KS 7083-AU19-AA BBSP H 1 08:15:45.10 6.970 00:42:47 Yes
33 Stallion - CA 0816-AU19-SFPC Wichita’s Gold BB H 1 08:15:47.40 6.967 00:42:49 Yes
34 P N W Challenge - ID 0006-AU19-PNWC “PAIR #16” BB H 1 08:15:59.20 6.949 00:43:00 Yes
35 ** J-Ireneo Loft ** - CA 0422-AU19-JIR BB H 1 08:16:00.30 6.947 00:43:02 Yes
36 Bob Niemeyer - CA 0916-AU19-AUB BB H 1 08:16:03.10 6.943 00:43:04 Yes
37 Dan & Greg Coury - AZ 13981-AU19-JEDD "That and This" 7X1 BC H 1 08:16:19.30 6.918 00:43:21 Yes
38 Jeff Earthman - NV 1939-AU19-JEDD 2096-8101 BBSP H 1 08:16:23.10 6.912 00:43:25 Yes
38 Ron Brooks - AR 1912-AU19-REB BB H 1 08:16:23.10 6.912 00:43:25 Yes
40 Double Diamond Tack & Feed - CA 0015-AU19-HANG BC H 1 08:16:28.50 6.904 00:43:30 Yes
41 Mels Loft - NY 0009-IF19-MTFL PIED H 1 08:16:41.70 6.884 00:43:43 Yes
42 Jactions Loft - CA 0813-AU19-AA RC H 1 08:16:45.20 6.879 00:43:47 Yes
43 Whiskey Hollow Loft - TX 1300-AU19-WACO BC H 1 08:16:46.20 6.878 00:43:47 Yes
44 Silicon Valley Syndicates - CA 19156-AU19-SVS DC H 2 08:16:48.10 6.875 00:43:49 Yes
45 Da-Dong - WI 1681-AU19-RAC 8057-2782 BC H 2 08:16:49.40 6.873 00:43:51 Yes
46 Aimhigh Loft - CA 2901-AU19-AA BLACK DEV***0096*** BC H 2 08:16:56.10 6.863 00:43:57 Yes
47 Nemelka Racing Pigeon Loft - UT 9003-AU19-NRPL Berzerk BB C 3 08:16:59.10 6.858 00:44:01 Yes
48 Denis Eastwood - CA 0124-AU19-HANG PIED H 1 08:17:04.10 6.851 00:44:06 Yes
49 Flyhome Loft - CA 1910-AU19-FLYH BCWF H 1 08:17:05.10 6.850 00:44:06 Yes
50 A P C Loft - TX 19041-AU19-APC BBSP H 2 08:17:05.60 6.849 00:44:07 Yes
51 Skychargers - CA 0275-AU19-CORO BKWF H 2 08:17:20.70 6.827 00:44:22 Yes
52 Ken Chin - CA 0067-AU19-TRAN BB H 1 08:17:24.10 6.822 00:44:25 Yes
53 Quejado/Fernandez - CA 0203-AU19-TCH BCSP H 1 08:17:26.90 6.817 00:44:29 Yes
54 Ken Chhi - CA 25766-AU19-AA BBWF H 1 08:17:27.90 6.816 00:44:29 Yes
54 Cuevas Classic - TX 3918-AU19-DALL BC H 2 08:17:28.20 6.816 00:44:29 Yes
56 Crazy Als Lofts - CO 5514-AU19-CRAZ BB H 4 08:17:33.10 6.808 00:44:35 Yes
57 H & H Flying Circus - CA 0286-AU19-ML BC H 1 08:17:43.70 6.793 00:44:45 Yes
58 Cala's - NY 0115-AU19-CALA DC H 1 08:17:44.30 6.792 00:44:46 Yes
59 D J's Loft Of Ca - CA 5003-AU19-FSC BB H 1 08:17:45.10 6.791 00:44:46 Yes
60 Jimmy Zheng Loft - MS 0951-AU19-JZL BBSP H 1 08:17:45.90 6.790 00:44:47 Yes
61 Crazy Als Lofts - CO 5697-AU19-CRAZ BB H 5 08:17:46.40 6.789 00:44:48 Yes
62 Peters - GA 0019-AU19-PETE PETERS - 5 BB H 1 08:17:47.60 6.787 00:44:49 Yes
63 Marty Hansen - CA 2104-AU19-LAKE BB H 1 08:17:49.10 6.785 00:44:50 Yes
64 John Hedderson - CA 7601-AU19-FORT 1275x7143 BB H 1 08:17:57.40 6.773 00:44:59 Yes
65 Gottruhm - CA 56118-AU19-ARPU BB H 1 08:17:58.10 6.772 00:44:59 Missing
66 Jactions Loft - CA 0812-AU19-AA RC H 2 08:18:01.20 6.767 00:45:03 Yes
66 Nemelka Racing Pigeon Loft - UT 9093-AU19-NRPL Haka BC C 4 08:18:01.20 6.767 00:45:03 Yes
68 Da-Dong - WI 1686-AU19-RAC 836-836 BB H 3 08:18:02.60 6.765 00:45:04 Yes
69 Circle Loft - FL 0444-AU19-CIRC PIED H 1 08:18:04.00 6.763 00:45:06 Yes
70 Tian Loft - FL 15629-AU19-ARPU BB H 1 08:18:04.80 6.762 00:45:06 Yes
71 Bob Bostwick - CA 0929-AU19-COCO BB H 2 08:18:06.70 6.760 00:45:08 Yes
72 Drama Queen Loft - TX 19534-AU19-HCF BB H 1 08:18:08.30 6.757 00:45:10 Yes
72 Don & Kathy Dusart - CA 0217-AU19-WDRP BC H 1 08:18:08.50 6.757 00:45:10 Yes
74 Marengo Creek Farms - AL 3226-AU19-MCF BB H 3 08:18:09.10 6.756 00:45:11 Yes
75 D J's Loft Of Ca - CA 5097-AU19-FSC BB H 2 08:18:10.30 6.754 00:45:12 Yes
76 Emmalyn & Carelyn Loft - CA 0008-AU19-CEYX CEYX 8 BB H 1 08:18:13.10 6.750 00:45:15 Yes
77 J S R Loft - UT 0081-AU19-JSRL BB H 1 08:18:21.00 6.739 00:45:22 Yes
78 Genesis Syndicate Loft - AZ 0765-AU19-GENS DC H 2 08:18:21.90 6.738 00:45:23 Yes
79 Jeff Earthman - NV 1931-AU19-JEDD 899-803 BB H 2 08:18:22.40 6.737 00:45:24 Yes
80 WŸŁØft - CA 13532-AU19-AA #2 PIED H 1 08:18:26.00 6.732 00:45:27 Yes
81 Racing Pigeon Mall - WA 0906-AU19-RPM BLK H 1 08:18:27.60 6.730 00:45:29 Yes
82 Nemelka Racing Pigeon Loft - UT 9012-AU19-NRPL Easy Jet BB C 5 08:18:30.10 6.726 00:45:31 Yes
83 J & J Loft Of Tx. - TX 1607-AU19-WACO 284 x 341 BB H 1 08:18:33.10 6.722 00:45:34 Yes
84 Bernardo Ibanez - CA 29389-AU19-ARPU BB H 2 08:18:33.50 6.721 00:45:35 Yes
84 WŸŁØft - CA 13522-AU19-AA #2 BBSP H 2 08:18:33.60 6.721 00:45:35 Yes
86 G & J Lofts - CA 2514-AU19-AA African Roots BB H 1 08:18:43.10 6.707 00:45:45 Yes
86 Cala's - NY 1403-IF19-BUFF BB H 2 08:18:43.40 6.707 00:45:45 Yes
88 Kay Eastwood - CA 0114-AU19-HANG DC H 2 08:18:48.20 6.700 00:45:50 Yes
89 WŸŁØft - CA 13512-AU19-AA #2 PIED H 3 08:18:49.80 6.698 00:45:51 Yes
90 Aka Loft - CA 8112-AU19-AA DC H 1 08:18:50.20 6.697 00:45:52 Yes
91 A F L - GA 0066-IF19-AFL 512 x 679 BB H 2 08:19:09.00 6.671 00:46:10 Yes
92 Sugaronni Loft - CA 1234-AU19-FOYS BB H 1 08:19:13.60 6.664 00:46:15 Yes
93 Tarheel Syndicate - NC 9260-IF19-TRC Raleigh BBWF H 1 08:19:25.90 6.647 00:46:27 Yes
94 J & M Partridge Loft - CA 1611-AU19-PASO BC C 2 08:19:29.10 6.643 00:46:30 Yes
95 Shi Loft - PA 7067-IF19-ERIE BB H 1 08:19:54.00 6.608 00:46:56 Yes
96 Quejado/Fernandez - CA 0922-AU19-QUEJ BB H 2 08:20:16.70 6.577 00:47:18 Yes
97 Rodriguez Loft - TX 19577-AU19-WIN 11500-10383 BLK H 1 08:20:22.80 6.569 00:47:24 Yes
98 Ken Chhi - CA 25760-AU19-AA BB H 2 08:20:29.40 6.560 00:47:31 Yes
99 G & L Loft - OR 0524-AU19-WPC DCSP H 1 08:20:32.80 6.555 00:47:34 Yes
100 WŸŁØft - CA 13502-AU19-AA #2 BCSP C 4 08:21:21.70 6.490 00:48:23 Yes

There are 426 bird records

Note: These Race Results are unofficial and subject to change until verified by the Race Committee and declared final.